createdAt,value
2019-03-23T00:01:25.432Z,69.57
2019-03-23T00:03:51.222Z,68.87
2019-03-23T00:06:17.001Z,68.30
2019-03-23T00:08:42.806Z,72.13
2019-03-23T00:11:08.623Z,73.40
2019-03-23T00:13:34.388Z,70.30
2019-03-23T00:16:00.180Z,73.60
2019-03-23T00:18:25.993Z,73.47
2019-03-23T00:20:51.783Z,75.17
2019-03-23T00:23:17.581Z,82.37
2019-03-23T00:25:43.379Z,83.10
2019-03-23T00:28:09.157Z,81.83
2019-03-23T00:30:34.957Z,81.33
2019-03-23T00:33:00.734Z,87.63
2019-03-23T00:35:26.538Z,86.70
2019-03-23T00:37:52.326Z,86.83
2019-03-23T00:40:18.134Z,89.00
2019-03-23T00:42:43.921Z,85.97
2019-03-23T00:45:09.914Z,80.63
2019-03-23T00:47:35.710Z,81.10
2019-03-23T00:50:02.035Z,87.63
2019-03-23T00:52:27.797Z,83.40
2019-03-23T00:54:53.603Z,80.63
2019-03-23T00:57:19.385Z,93.43
2019-03-23T00:59:45.176Z,96.27
2019-03-23T01:02:10.973Z,90.20
2019-03-23T01:04:36.809Z,87.47
2019-03-23T01:07:02.750Z,85.97
2019-03-23T01:09:28.554Z,94.97
2019-03-23T01:11:54.332Z,81.23
2019-03-23T01:14:20.146Z,84.67
2019-03-23T01:16:45.928Z,73.93
2019-03-23T01:19:11.712Z,81.57
2019-03-23T01:21:37.786Z,85.13
2019-03-23T01:24:03.688Z,84.80
2019-03-23T01:26:29.486Z,88.07
2019-03-23T01:28:55.410Z,94.37
2019-03-23T01:31:21.336Z,107.57
2019-03-23T01:33:47.116Z,91.83
2019-03-23T01:36:13.052Z,93.10
2019-03-23T01:38:38.832Z,100.77
2019-03-23T01:41:05.072Z,96.30
2019-03-23T01:43:31.014Z,91.27
2019-03-23T01:45:56.816Z,98.97
2019-03-23T01:48:22.594Z,99.67
2019-03-23T01:50:49.054Z,95.77
2019-03-23T01:53:14.836Z,100.43
2019-03-23T01:55:40.869Z,119.90
2019-03-23T01:58:06.661Z,124.03
2019-03-23T02:00:32.554Z,105.23
2019-03-23T02:02:58.450Z,94.83
2019-03-23T02:05:24.486Z,98.90
2019-03-23T02:07:50.268Z,82.63
2019-03-23T02:10:16.061Z,80.47
2019-03-23T02:12:41.921Z,87.73
2019-03-23T02:15:09.722Z,86.53
2019-03-23T02:17:35.909Z,78.47
2019-03-23T02:20:04.953Z,81.10
2019-03-23T02:22:30.747Z,78.87
2019-03-23T02:24:57.334Z,79.80
2019-03-23T02:27:23.510Z,79.17
2019-03-23T02:29:49.336Z,80.40
2019-03-23T02:32:15.829Z,76.53
2019-03-23T02:34:42.358Z,77.67
2019-03-23T02:37:08.142Z,78.67
2019-03-23T02:39:34.039Z,76.73
2019-03-23T02:41:59.821Z,78.77
2019-03-23T02:44:25.600Z,75.33
2019-03-23T02:46:51.398Z,77.17
2019-03-23T02:49:17.907Z,76.90
2019-03-23T02:51:43.999Z,70.27
2019-03-23T02:54:09.856Z,68.50
2019-03-23T02:56:35.618Z,69.87
2019-03-23T02:59:04.608Z,65.77
2019-03-23T03:01:30.395Z,68.30
2019-03-23T03:03:56.177Z,68.47
2019-03-23T03:06:22.302Z,68.20
2019-03-23T03:08:48.088Z,64.80
2019-03-23T03:11:13.913Z,71.47
2019-03-23T03:13:39.692Z,70.23
2019-03-23T03:16:05.486Z,69.73
2019-03-23T03:18:31.289Z,67.40
2019-03-23T03:20:57.096Z,68.17
2019-03-23T03:23:22.884Z,69.87
2019-03-23T03:25:48.661Z,67.17
2019-03-23T03:28:14.473Z,64.40
2019-03-23T03:30:40.258Z,63.13
2019-03-23T03:33:06.040Z,67.93
2019-03-23T03:35:31.815Z,66.83
2019-03-23T03:37:57.622Z,71.03
2019-03-23T03:40:23.398Z,66.33
2019-03-23T03:42:49.220Z,68.23
2019-03-23T03:45:22.963Z,70.53
2019-03-23T03:47:48.763Z,73.60
2019-03-23T03:50:14.547Z,73.17
2019-03-23T03:52:40.341Z,72.20
2019-03-23T03:55:06.625Z,72.33
2019-03-23T03:57:32.420Z,67.57
2019-03-23T03:59:58.212Z,67.67
2019-03-23T04:02:24.033Z,67.30
2019-03-23T04:04:49.814Z,69.33
2019-03-23T04:07:15.671Z,69.17
2019-03-23T04:09:41.440Z,71.20
2019-03-23T04:12:07.217Z,72.83
2019-03-23T04:14:33.016Z,70.57
2019-03-23T04:16:58.800Z,69.03
2019-03-23T04:19:24.745Z,75.63
2019-03-23T04:21:50.520Z,71.10
2019-03-23T04:24:16.315Z,73.90
2019-03-23T04:26:42.097Z,71.37
2019-03-23T04:29:07.904Z,70.97
2019-03-23T04:31:33.681Z,70.30
2019-03-23T04:33:59.473Z,67.00
2019-03-23T04:36:25.248Z,69.70
2019-03-23T04:38:51.041Z,70.47
2019-03-23T04:41:16.819Z,72.60
2019-03-23T04:43:42.608Z,73.43
2019-03-23T04:46:08.393Z,71.83
2019-03-23T04:48:34.188Z,73.73
2019-03-23T04:50:59.968Z,70.83
2019-03-23T04:53:25.759Z,70.77
2019-03-23T04:55:51.552Z,72.10
2019-03-23T04:58:17.332Z,74.77
2019-03-23T05:00:43.135Z,73.47
2019-03-23T05:03:08.919Z,74.40
2019-03-23T05:05:34.715Z,73.87
2019-03-23T05:08:00.496Z,71.70
2019-03-23T05:10:26.304Z,69.83
2019-03-23T05:12:52.090Z,70.63
2019-03-23T05:15:17.894Z,68.43
2019-03-23T05:17:43.671Z,72.03
2019-03-23T05:20:13.279Z,72.43
2019-03-23T05:22:39.075Z,72.57
2019-03-23T05:25:05.671Z,73.43
2019-03-23T05:27:31.457Z,69.90
2019-03-23T05:29:57.258Z,69.63
2019-03-23T05:32:23.042Z,72.53
2019-03-23T05:34:48.835Z,67.40
2019-03-23T05:37:14.614Z,67.60
2019-03-23T05:39:40.397Z,66.60
2019-03-23T05:42:06.304Z,65.13
2019-03-23T05:44:32.083Z,67.70
2019-03-23T05:46:57.895Z,65.43
2019-03-23T05:49:23.681Z,65.33
2019-03-23T05:51:49.483Z,60.70
2019-03-23T05:54:15.260Z,63.87
2019-03-23T05:56:41.053Z,65.27
2019-03-23T05:59:06.840Z,65.67
2019-03-23T06:01:32.636Z,63.33
2019-03-23T06:03:58.413Z,64.77
2019-03-23T06:06:24.210Z,63.80
2019-03-23T06:08:54.903Z,64.53
2019-03-23T06:11:17.694Z,61.83
2019-03-23T06:13:43.476Z,61.83
2019-03-23T06:16:09.275Z,64.30
2019-03-23T06:18:35.057Z,65.77
2019-03-23T06:21:00.864Z,66.10
2019-03-23T06:23:26.645Z,60.50
2019-03-23T06:25:52.437Z,64.33
2019-03-23T06:28:18.237Z,65.30
2019-03-23T06:30:44.031Z,62.97
2019-03-23T06:33:09.816Z,66.70
2019-03-23T06:35:35.629Z,68.50
2019-03-23T06:38:01.404Z,67.07
2019-03-23T06:40:27.202Z,69.97
2019-03-23T06:42:59.756Z,69.20
2019-03-23T06:45:20.773Z,67.67
2019-03-23T06:47:46.569Z,69.33
2019-03-23T06:50:12.649Z,68.60
2019-03-23T06:52:38.458Z,67.67
2019-03-23T06:55:05.647Z,66.40
2019-03-23T06:57:31.444Z,70.17
2019-03-23T06:59:57.225Z,68.87
2019-03-23T07:02:23.023Z,66.97
2019-03-23T07:04:49.617Z,71.17
2019-03-23T07:07:15.429Z,65.40
2019-03-23T07:09:41.218Z,68.33
2019-03-23T07:12:07.021Z,66.87
2019-03-23T07:14:32.797Z,67.00
2019-03-23T07:16:58.592Z,67.00
2019-03-23T07:19:24.367Z,68.20
2019-03-23T07:21:50.582Z,66.50
2019-03-23T07:24:16.474Z,64.37
2019-03-23T07:26:42.272Z,63.57
2019-03-23T07:29:08.066Z,63.90
2019-03-23T07:31:33.846Z,65.50
2019-03-23T07:33:59.642Z,65.60
2019-03-23T07:36:25.422Z,60.83
2019-03-23T07:38:51.224Z,65.23
2019-03-23T07:41:16.996Z,61.57
2019-03-23T07:43:42.799Z,61.07
2019-03-23T07:46:08.631Z,62.33
2019-03-23T07:48:34.378Z,64.53
2019-03-23T07:51:00.146Z,62.20
2019-03-23T07:53:25.941Z,60.57
2019-03-23T07:55:51.725Z,63.10
2019-03-23T07:58:17.529Z,61.07
2019-03-23T08:00:43.292Z,61.37
2019-03-23T08:03:09.094Z,61.53
2019-03-23T08:05:34.880Z,59.83
2019-03-23T08:08:00.684Z,59.57
2019-03-23T08:10:30.866Z,58.43
2019-03-23T08:12:56.664Z,58.23
2019-03-23T08:15:22.444Z,58.40
2019-03-23T08:17:48.228Z,58.97
2019-03-23T08:20:14.037Z,59.87
2019-03-23T08:22:39.837Z,59.83
2019-03-23T08:25:05.727Z,61.93
2019-03-23T08:27:31.510Z,60.57
2019-03-23T08:29:57.306Z,59.70
2019-03-23T08:32:23.086Z,58.13
2019-03-23T08:34:48.881Z,59.77
2019-03-23T08:37:14.662Z,59.17
2019-03-23T08:39:48.048Z,59.67
2019-03-23T08:42:08.152Z,62.27
2019-03-23T08:44:33.953Z,59.63
2019-03-23T08:46:59.734Z,59.23
2019-03-23T08:49:25.535Z,61.17
2019-03-23T08:51:51.315Z,59.50
2019-03-23T08:54:17.115Z,59.57
2019-03-23T08:56:42.897Z,60.50
2019-03-23T08:59:08.687Z,57.33
2019-03-23T09:01:34.463Z,58.27
2019-03-23T09:04:00.286Z,58.93
2019-03-23T09:06:26.064Z,61.47
2019-03-23T09:08:51.847Z,61.17
2019-03-23T09:11:20.740Z,58.03
2019-03-23T09:13:45.333Z,58.57
2019-03-23T09:16:11.142Z,56.27
2019-03-23T09:18:36.926Z,57.67
2019-03-23T09:21:02.736Z,56.73
2019-03-23T09:23:28.522Z,58.80
2019-03-23T09:25:54.347Z,57.73
2019-03-23T09:28:20.115Z,57.60
2019-03-23T09:30:45.910Z,58.20
2019-03-23T09:33:11.700Z,56.77
2019-03-23T09:35:39.379Z,59.37
2019-03-23T09:38:05.192Z,59.87
2019-03-23T09:40:30.999Z,57.80
2019-03-23T09:42:56.779Z,56.30
2019-03-23T09:45:22.578Z,54.47
2019-03-23T09:47:48.360Z,57.37
2019-03-23T09:50:14.465Z,55.33
2019-03-23T09:52:40.260Z,54.70
2019-03-23T09:55:06.460Z,53.37
2019-03-23T09:57:32.269Z,52.43
2019-03-23T09:59:58.058Z,53.07
2019-03-23T10:02:23.864Z,52.13
2019-03-23T10:04:49.647Z,52.27
2019-03-23T10:07:15.445Z,49.40
2019-03-23T10:09:41.239Z,51.57
2019-03-23T10:12:07.043Z,50.07
2019-03-23T10:14:32.827Z,49.73
2019-03-23T10:16:58.624Z,50.13
2019-03-23T10:19:24.572Z,48.77
2019-03-23T10:21:50.353Z,47.93
2019-03-23T10:24:16.164Z,46.37
2019-03-23T10:26:41.960Z,45.93
2019-03-23T10:29:07.745Z,45.87
2019-03-23T10:31:33.538Z,43.53
2019-03-23T10:33:59.320Z,45.07
2019-03-23T10:36:25.122Z,43.73
2019-03-23T10:38:50.908Z,41.83
2019-03-23T10:41:16.723Z,41.57
2019-03-23T10:43:42.507Z,40.30
2019-03-23T10:46:08.305Z,39.10
2019-03-23T10:48:34.084Z,37.60
2019-03-23T10:50:59.873Z,36.47
2019-03-23T10:53:25.713Z,35.73
2019-03-23T10:55:51.490Z,35.60
2019-03-23T10:58:17.297Z,33.70
2019-03-23T11:00:43.080Z,33.33
2019-03-23T11:03:08.896Z,32.77
2019-03-23T11:05:34.678Z,32.97
2019-03-23T11:08:00.512Z,31.07
2019-03-23T11:10:26.276Z,32.23
2019-03-23T11:12:52.084Z,32.57
2019-03-23T11:15:17.874Z,30.47
2019-03-23T11:17:43.667Z,30.23
2019-03-23T11:20:11.149Z,30.63
2019-03-23T11:22:36.970Z,29.47
2019-03-23T11:25:05.160Z,28.73
2019-03-23T11:27:30.999Z,28.83
2019-03-23T11:29:56.790Z,28.13
2019-03-23T11:32:22.570Z,29.80
2019-03-23T11:34:48.365Z,28.13
2019-03-23T11:37:14.216Z,28.97
2019-03-23T11:39:40.057Z,27.77
2019-03-23T11:42:05.839Z,28.53
2019-03-23T11:44:31.625Z,27.17
2019-03-23T11:46:57.410Z,28.40
2019-03-23T11:49:23.217Z,27.50
2019-03-23T11:51:49.006Z,27.53
2019-03-23T11:54:14.805Z,28.23
2019-03-23T11:56:40.600Z,27.13
2019-03-23T11:59:06.398Z,24.97
2019-03-23T12:01:32.189Z,23.17
2019-03-23T12:03:57.989Z,25.80
2019-03-23T12:06:24.188Z,23.53
2019-03-23T12:08:49.986Z,26.20
2019-03-23T12:11:15.780Z,22.60
2019-03-23T12:13:41.572Z,21.27
2019-03-23T12:16:07.363Z,20.20
2019-03-23T12:18:33.153Z,17.20
2019-03-23T12:20:58.969Z,17.00
2019-03-23T12:23:24.799Z,18.83
2019-03-23T12:25:50.572Z,15.80
2019-03-23T12:28:16.386Z,13.37
2019-03-23T12:30:42.181Z,12.77
2019-03-23T12:33:07.968Z,12.60
2019-03-23T12:35:33.769Z,10.43
2019-03-23T12:37:59.569Z,11.93
2019-03-23T12:40:25.356Z,11.57
2019-03-23T12:42:51.142Z,10.30
2019-03-23T12:45:16.949Z,8.80
2019-03-23T12:47:42.748Z,5.63
2019-03-23T12:50:09.438Z,5.07
2019-03-23T12:52:35.227Z,4.70
2019-03-23T12:55:01.123Z,4.27
2019-03-23T12:57:26.903Z,4.73
2019-03-23T12:59:52.693Z,4.50
2019-03-23T13:02:18.482Z,4.60
2019-03-23T13:04:44.308Z,5.00
2019-03-23T13:07:10.094Z,4.27
2019-03-23T13:09:35.889Z,3.83
2019-03-23T13:12:01.669Z,3.23
2019-03-23T13:14:27.461Z,3.90
2019-03-23T13:16:53.258Z,3.80
2019-03-23T13:19:19.044Z,4.43
2019-03-23T13:21:44.865Z,3.70
2019-03-23T13:24:12.558Z,4.70
2019-03-23T13:26:38.360Z,4.10
2019-03-23T13:29:04.142Z,3.63
2019-03-23T13:31:29.941Z,3.43
2019-03-23T13:33:55.731Z,3.10
2019-03-23T13:36:21.522Z,3.73
2019-03-23T13:38:47.305Z,3.53
2019-03-23T13:41:13.110Z,3.53
2019-03-23T13:43:38.889Z,3.80
2019-03-23T13:46:04.694Z,3.60
2019-03-23T13:48:30.476Z,3.57
2019-03-23T13:50:56.277Z,3.63
2019-03-23T13:53:22.071Z,3.30
2019-03-23T13:55:47.903Z,2.90
2019-03-23T13:58:13.787Z,3.10
2019-03-23T14:00:39.578Z,3.33
2019-03-23T14:03:06.374Z,3.77
2019-03-23T14:05:32.157Z,3.57
2019-03-23T14:07:57.955Z,3.37
2019-03-23T14:10:23.750Z,2.83
2019-03-23T14:12:49.546Z,2.80
2019-03-23T14:15:15.324Z,3.00
2019-03-23T14:17:41.116Z,3.30
2019-03-23T14:20:06.897Z,3.40
2019-03-23T14:22:32.705Z,3.00
2019-03-23T14:24:58.490Z,2.97
2019-03-23T14:27:24.312Z,2.80
2019-03-23T14:29:50.154Z,2.73
2019-03-23T14:32:15.958Z,3.10
2019-03-23T14:34:41.762Z,3.90
2019-03-23T14:37:07.673Z,3.63
2019-03-23T14:39:33.460Z,3.57
2019-03-23T14:42:04.893Z,3.60
2019-03-23T14:44:26.949Z,3.53
2019-03-23T14:46:52.746Z,3.33
2019-03-23T14:49:18.527Z,3.87
2019-03-23T14:51:44.322Z,3.57
2019-03-23T14:54:10.145Z,3.87
2019-03-23T14:56:35.935Z,4.00
2019-03-23T14:59:01.730Z,3.47
2019-03-23T15:01:27.515Z,3.73
2019-03-23T15:03:53.341Z,3.47
2019-03-23T15:06:19.101Z,4.00
2019-03-23T15:08:44.901Z,3.93
2019-03-23T15:11:10.689Z,3.37
2019-03-23T15:13:36.487Z,3.50
2019-03-23T15:16:02.283Z,3.23
2019-03-23T15:18:28.101Z,2.93
2019-03-23T15:20:53.884Z,3.10
2019-03-23T15:23:19.711Z,2.60
2019-03-23T15:25:45.493Z,2.87
2019-03-23T15:28:11.314Z,2.77
2019-03-23T15:30:37.093Z,3.60
2019-03-23T15:33:02.886Z,3.13
2019-03-23T15:35:28.683Z,3.27
2019-03-23T15:37:54.473Z,3.50
2019-03-23T15:40:20.269Z,3.67
2019-03-23T15:42:46.065Z,3.50
2019-03-23T15:45:12.061Z,3.63
2019-03-23T15:47:37.856Z,3.43
2019-03-23T15:50:04.866Z,3.03
2019-03-23T15:52:30.659Z,2.90
2019-03-23T15:54:56.455Z,2.70
2019-03-23T15:57:22.239Z,3.33
2019-03-23T15:59:48.034Z,2.50
2019-03-23T16:02:13.820Z,2.90
2019-03-23T16:04:39.616Z,2.60
2019-03-23T16:07:05.414Z,2.77
2019-03-23T16:09:31.216Z,3.13
2019-03-23T16:11:57.010Z,2.93
2019-03-23T16:14:22.803Z,3.47
2019-03-23T16:16:48.594Z,3.87
2019-03-23T16:19:14.398Z,3.57
2019-03-23T16:21:40.207Z,4.10
2019-03-23T16:24:05.989Z,4.03
2019-03-23T16:26:31.787Z,3.60
2019-03-23T16:28:57.570Z,4.40
2019-03-23T16:31:23.365Z,4.13
2019-03-23T16:33:49.157Z,4.03
2019-03-23T16:36:14.961Z,4.10
2019-03-23T16:38:40.746Z,4.33
2019-03-23T16:41:06.546Z,4.47
2019-03-23T16:43:32.324Z,3.73
2019-03-23T16:45:58.121Z,4.10
2019-03-23T16:48:23.980Z,3.80
2019-03-23T16:50:49.842Z,4.13
2019-03-23T16:53:15.632Z,3.90
2019-03-23T16:55:41.449Z,3.90
2019-03-23T16:58:15.694Z,4.37
2019-03-23T17:00:36.453Z,4.10
2019-03-23T17:03:03.250Z,4.30
2019-03-23T17:05:29.056Z,4.13
2019-03-23T17:07:54.834Z,4.57
2019-03-23T17:10:20.617Z,4.23
2019-03-23T17:12:55.096Z,4.10
2019-03-23T17:15:14.101Z,5.60
2019-03-23T17:17:39.896Z,5.20
2019-03-23T17:20:05.886Z,5.10
2019-03-23T17:22:31.696Z,5.13
2019-03-23T17:24:57.483Z,5.43
2019-03-23T17:27:23.301Z,4.80
2019-03-23T17:29:49.085Z,5.07
2019-03-23T17:32:14.892Z,5.70
2019-03-23T17:34:40.673Z,5.13
2019-03-23T17:37:06.529Z,5.07
2019-03-23T17:39:32.295Z,5.33
2019-03-23T17:41:58.089Z,5.07
2019-03-23T17:44:23.873Z,4.50
2019-03-23T17:46:49.669Z,5.30
2019-03-23T17:49:15.445Z,5.87
2019-03-23T17:51:41.242Z,5.33
2019-03-23T17:54:07.022Z,4.87
2019-03-23T17:56:32.886Z,5.50
2019-03-23T17:58:58.666Z,6.60
2019-03-23T18:01:24.453Z,5.47
2019-03-23T18:03:50.253Z,5.93
2019-03-23T18:06:16.047Z,6.50
2019-03-23T18:08:41.841Z,6.33
2019-03-23T18:11:07.626Z,7.07
2019-03-23T18:13:33.424Z,7.03
2019-03-23T18:15:59.208Z,5.90
2019-03-23T18:18:25.008Z,5.63
2019-03-23T18:20:50.790Z,5.23
2019-03-23T18:23:16.823Z,6.73
2019-03-23T18:25:42.596Z,5.90
2019-03-23T18:28:08.395Z,6.30
2019-03-23T18:30:39.209Z,7.57
2019-03-23T18:33:05.214Z,6.23
2019-03-23T18:35:31.090Z,6.87
2019-03-23T18:37:56.881Z,7.20
2019-03-23T18:40:22.671Z,6.37
2019-03-23T18:42:48.455Z,6.63
2019-03-23T18:45:14.268Z,7.17
2019-03-23T18:47:40.052Z,7.23
2019-03-23T18:50:05.957Z,7.70
2019-03-23T18:52:31.846Z,9.13
2019-03-23T18:54:57.735Z,7.50
2019-03-23T18:57:23.517Z,7.17
2019-03-23T18:59:49.328Z,7.07
2019-03-23T19:02:15.100Z,7.10
2019-03-23T19:04:40.895Z,7.17
2019-03-23T19:07:06.679Z,7.23
2019-03-23T19:09:32.493Z,7.27
2019-03-23T19:11:58.472Z,7.43
2019-03-23T19:14:24.278Z,6.40
2019-03-23T19:16:50.060Z,6.53
2019-03-23T19:19:15.858Z,6.67
2019-03-23T19:21:41.650Z,7.20
2019-03-23T19:24:07.444Z,7.23
2019-03-23T19:26:33.227Z,6.90
2019-03-23T19:28:59.036Z,6.93
2019-03-23T19:31:24.819Z,6.33
2019-03-23T19:33:50.595Z,7.00
2019-03-23T19:36:16.394Z,7.77
2019-03-23T19:38:42.177Z,7.17
2019-03-23T19:41:07.973Z,7.30
2019-03-23T19:43:33.759Z,7.43
2019-03-23T19:45:59.558Z,7.80
2019-03-23T19:48:25.344Z,6.07
2019-03-23T19:50:51.134Z,6.67
2019-03-23T19:53:17.033Z,7.60
2019-03-23T19:55:42.823Z,7.23
2019-03-23T19:58:08.606Z,8.23
2019-03-23T20:00:34.413Z,7.33
2019-03-23T20:03:00.194Z,8.27
2019-03-23T20:05:26.015Z,8.53
2019-03-23T20:07:51.777Z,7.77
2019-03-23T20:10:17.687Z,7.93
2019-03-23T20:12:43.465Z,6.83
2019-03-23T20:15:09.870Z,7.20
2019-03-23T20:17:35.652Z,9.73
2019-03-23T20:20:03.549Z,9.03
2019-03-23T20:22:29.345Z,9.63
2019-03-23T20:24:55.828Z,10.33
2019-03-23T20:27:21.613Z,9.97
2019-03-23T20:29:47.396Z,8.73
2019-03-23T20:32:13.194Z,8.57
2019-03-23T20:34:38.978Z,7.17
2019-03-23T20:37:04.780Z,8.50
2019-03-23T20:39:30.567Z,8.40
2019-03-23T20:41:56.370Z,8.33
2019-03-23T20:44:22.157Z,10.20
2019-03-23T20:46:48.043Z,9.87
2019-03-23T20:49:13.921Z,8.33
2019-03-23T20:51:40.039Z,10.60
2019-03-23T20:54:05.813Z,8.13
2019-03-23T20:56:31.606Z,10.20
2019-03-23T20:58:57.384Z,13.83
2019-03-23T21:01:23.176Z,9.73
2019-03-23T21:03:48.966Z,10.23
2019-03-23T21:06:14.762Z,10.80
2019-03-23T21:08:40.541Z,11.43
2019-03-23T21:11:06.329Z,12.37
2019-03-23T21:13:32.112Z,11.90
2019-03-23T21:15:57.931Z,10.27
2019-03-23T21:18:23.706Z,9.60
2019-03-23T21:20:49.484Z,9.63
2019-03-23T21:23:15.301Z,8.50
2019-03-23T21:25:41.081Z,7.93
2019-03-23T21:28:06.884Z,8.50
2019-03-23T21:30:32.673Z,8.77
2019-03-23T21:32:58.473Z,9.77
2019-03-23T21:35:24.245Z,10.07
2019-03-23T21:37:50.102Z,9.90
2019-03-23T21:40:15.838Z,9.63
2019-03-23T21:42:41.636Z,9.23
2019-03-23T21:45:08.126Z,8.57
2019-03-23T21:47:34.129Z,8.53
2019-03-23T21:49:59.913Z,8.50
2019-03-23T21:52:25.718Z,7.90
2019-03-23T21:54:51.505Z,9.47
2019-03-23T21:57:17.385Z,7.77
2019-03-23T21:59:43.185Z,8.07
2019-03-23T22:02:08.960Z,8.53
2019-03-23T22:04:35.037Z,8.17
2019-03-23T22:07:00.868Z,8.20
2019-03-23T22:09:26.662Z,8.00
2019-03-23T22:11:52.448Z,9.17
2019-03-23T22:14:18.387Z,8.40
2019-03-23T22:16:44.324Z,8.60
2019-03-23T22:19:10.116Z,8.23
2019-03-23T22:21:35.914Z,8.63
2019-03-23T22:24:01.708Z,8.40
2019-03-23T22:26:27.496Z,8.77
2019-03-23T22:28:53.289Z,8.10
2019-03-23T22:31:19.076Z,8.47
2019-03-23T22:33:44.871Z,8.93
2019-03-23T22:36:10.654Z,8.83
2019-03-23T22:38:36.454Z,8.33
2019-03-23T22:41:02.236Z,8.37
2019-03-23T22:43:28.046Z,8.80
2019-03-23T22:45:53.840Z,9.37
2019-03-23T22:48:19.622Z,8.67
2019-03-23T22:50:45.428Z,8.20
2019-03-23T22:53:11.217Z,9.43
2019-03-23T22:55:37.016Z,10.30
2019-03-23T22:58:02.897Z,9.87
2019-03-23T23:00:42.175Z,8.93
2019-03-23T23:03:08.264Z,8.90
2019-03-23T23:05:34.060Z,9.93
2019-03-23T23:07:59.842Z,9.13
2019-03-23T23:10:25.632Z,9.17
2019-03-23T23:12:51.422Z,10.07
2019-03-23T23:15:17.295Z,10.13
2019-03-23T23:17:43.074Z,11.27
2019-03-23T23:20:09.066Z,11.40
2019-03-23T23:22:34.856Z,9.37
2019-03-23T23:25:01.151Z,9.67
2019-03-23T23:27:26.933Z,10.53
2019-03-23T23:29:52.729Z,9.43
2019-03-23T23:32:18.508Z,10.30
2019-03-23T23:34:44.360Z,8.97
2019-03-23T23:37:10.107Z,8.63
2019-03-23T23:39:35.885Z,9.60
2019-03-23T23:42:01.677Z,9.20
2019-03-23T23:44:27.467Z,9.17
2019-03-23T23:46:53.275Z,8.87
2019-03-23T23:49:19.065Z,9.73
2019-03-23T23:51:50.084Z,9.27
2019-03-23T23:54:12.558Z,10.30
2019-03-23T23:56:38.408Z,9.60
2019-03-23T23:59:04.242Z,9.87
